createdAt,value
2023-01-29T00:00:10.238Z,-2.90
2023-01-29T00:02:42.740Z,-2.89
2023-01-29T00:05:26.494Z,-2.82
2023-01-29T00:07:56.235Z,-2.80
2023-01-29T00:10:24.933Z,-2.86
2023-01-29T00:12:53.310Z,-2.86
2023-01-29T00:15:21.767Z,-2.81
2023-01-29T00:17:51.588Z,-2.87
2023-01-29T00:20:20.345Z,-2.87
2023-01-29T00:22:48.945Z,-2.83
2023-01-29T00:25:17.339Z,-2.84
2023-01-29T00:27:45.890Z,-2.81
2023-01-29T00:30:19.342Z,-2.86
2023-01-29T00:32:48.280Z,-2.89
2023-01-29T00:35:18.152Z,-2.91
2023-01-29T00:37:46.569Z,-2.90
2023-01-29T00:40:15.695Z,-2.91
2023-01-29T00:43:03.053Z,-2.88
2023-01-29T00:45:31.494Z,-2.87
2023-01-29T00:47:59.823Z,-2.83
2023-01-29T00:50:30.386Z,-2.86
2023-01-29T00:52:58.835Z,-2.89
2023-01-29T00:55:36.074Z,-2.86
2023-01-29T00:58:04.352Z,-2.90
2023-01-29T01:00:32.663Z,-2.94
2023-01-29T01:03:05.918Z,-2.91
2023-01-29T01:05:37.083Z,-2.84
2023-01-29T01:13:16.548Z,-2.84
2023-01-29T01:16:42.898Z,-2.83
2023-01-29T01:20:20.469Z,-2.84
2023-01-29T01:22:56.673Z,-2.86
2023-01-29T01:25:26.830Z,-2.84
2023-01-29T01:27:55.441Z,-2.83
2023-01-29T01:30:24.787Z,-2.84
2023-01-29T01:32:53.469Z,-2.89
2023-01-29T01:35:22.078Z,-2.93
2023-01-29T01:37:50.563Z,-2.93
2023-01-29T01:40:22.058Z,-2.96
2023-01-29T01:42:50.798Z,-2.91
2023-01-29T01:45:23.219Z,-2.95
2023-01-29T01:47:56.052Z,-2.86
2023-01-29T01:50:28.368Z,-2.98
2023-01-29T01:53:02.776Z,-2.85
2023-01-29T01:55:36.618Z,-2.93
2023-01-29T01:58:11.416Z,-2.91
2023-01-29T02:00:40.663Z,-3.01
2023-01-29T02:03:28.637Z,-2.93
2023-01-29T02:06:17.914Z,-2.96
2023-01-29T02:09:10.532Z,-2.95
2023-01-29T02:11:40.334Z,-2.97
2023-01-29T02:14:09.097Z,-2.91
2023-01-29T02:16:38.118Z,-2.93
2023-01-29T02:19:12.090Z,-2.91
2023-01-29T02:21:59.255Z,-2.98
2023-01-29T02:25:10.112Z,-2.85
2023-01-29T02:28:06.695Z,-2.88
2023-01-29T02:30:39.317Z,-2.86
2023-01-29T02:33:18.605Z,-2.87
2023-01-29T02:35:56.046Z,-2.85
2023-01-29T02:38:32.054Z,-2.78
2023-01-29T02:41:04.986Z,-2.84
2023-01-29T02:43:46.802Z,-2.82
2023-01-29T02:46:21.247Z,-2.84
2023-01-29T02:48:58.241Z,-2.90
2023-01-29T02:51:35.553Z,-2.94
2023-01-29T02:54:09.749Z,-2.92
2023-01-29T02:56:45.967Z,-2.99
2023-01-29T02:59:22.508Z,-2.96
2023-01-29T03:01:54.466Z,-2.93
2023-01-29T03:04:28.512Z,-2.93
2023-01-29T03:07:02.739Z,-2.91
2023-01-29T03:09:35.970Z,-2.94
2023-01-29T03:12:28.465Z,-2.91
2023-01-29T03:15:16.273Z,-2.96
2023-01-29T03:18:01.482Z,-2.97
2023-01-29T03:20:35.255Z,-2.97
2023-01-29T03:23:10.575Z,-2.92
2023-01-29T03:25:59.491Z,-2.94
2023-01-29T03:28:48.932Z,-2.93
2023-01-29T03:31:37.681Z,-2.90
2023-01-29T03:34:18.309Z,-2.99
2023-01-29T03:36:55.915Z,-2.94
2023-01-29T03:39:28.420Z,-2.94
2023-01-29T03:42:03.795Z,-2.93
2023-01-29T03:44:40.423Z,-2.96
2023-01-29T03:47:23.417Z,-2.93
2023-01-29T03:50:00.390Z,-2.92
2023-01-29T03:52:38.542Z,-2.94
2023-01-29T03:55:14.194Z,-2.93
2023-01-29T03:57:46.722Z,-2.93
2023-01-29T04:00:21.348Z,-2.97
2023-01-29T04:03:10.930Z,-2.93
2023-01-29T04:05:46.202Z,-2.91
2023-01-29T04:08:30.092Z,-2.93
2023-01-29T04:11:08.403Z,-2.94
2023-01-29T04:13:38.154Z,-2.95
2023-01-29T04:16:11.015Z,-2.92
2023-01-29T04:18:56.281Z,-2.87
2023-01-29T04:21:33.057Z,-2.94
2023-01-29T04:24:01.480Z,-2.96
2023-01-29T04:26:47.311Z,-2.91
2023-01-29T04:29:32.843Z,-2.97
2023-01-29T04:32:12.931Z,-2.94
2023-01-29T04:35:00.798Z,-2.98
2023-01-29T04:37:44.496Z,-2.94
2023-01-29T04:40:21.455Z,-2.97
2023-01-29T04:43:01.359Z,-2.96
2023-01-29T04:45:45.230Z,-2.97
2023-01-29T04:48:21.667Z,-2.95
2023-01-29T04:50:59.108Z,-2.99
2023-01-29T04:53:36.846Z,-2.96
2023-01-29T04:56:14.043Z,-2.96
2023-01-29T04:58:48.451Z,-2.99
2023-01-29T05:01:20.530Z,-2.95
2023-01-29T05:03:53.887Z,-2.96
2023-01-29T05:06:25.118Z,-2.98
2023-01-29T05:08:55.618Z,-2.96
2023-01-29T05:11:26.087Z,-2.95
2023-01-29T05:13:55.282Z,-2.96
2023-01-29T05:16:27.768Z,-2.97
2023-01-29T05:18:56.654Z,-2.93
2023-01-29T05:21:28.236Z,-2.97
2023-01-29T05:24:10.791Z,-2.99
2023-01-29T05:26:56.742Z,-2.97
2023-01-29T05:29:25.230Z,-2.96
2023-01-29T05:31:53.650Z,-2.98
2023-01-29T05:34:22.055Z,-2.97
2023-01-29T05:36:51.945Z,-2.99
2023-01-29T05:39:20.252Z,-3.01
2023-01-29T05:41:48.751Z,-2.94
2023-01-29T05:44:17.217Z,-2.96
2023-01-29T05:46:46.276Z,-3.02
2023-01-29T05:49:14.818Z,-3.04
2023-01-29T05:51:43.104Z,-3.03
2023-01-29T05:54:14.398Z,-3.02
2023-01-29T05:56:42.670Z,-3.00
2023-01-29T05:59:10.989Z,-3.00
2023-01-29T06:01:39.331Z,-3.02
2023-01-29T06:04:07.703Z,-3.01
2023-01-29T06:06:36.023Z,-2.96
2023-01-29T06:09:04.551Z,-3.01
2023-01-29T06:11:34.756Z,-2.98
2023-01-29T06:14:03.245Z,-3.02
2023-01-29T06:16:31.662Z,-3.00
2023-01-29T06:18:59.988Z,-3.00
2023-01-29T06:21:28.233Z,-2.96
2023-01-29T06:23:56.607Z,-2.93
2023-01-29T06:26:24.931Z,-2.93
2023-01-29T06:28:54.568Z,-2.92
2023-01-29T06:31:37.455Z,-2.96
2023-01-29T06:34:06.988Z,-2.94
2023-01-29T06:36:35.385Z,-2.92
2023-01-29T06:39:04.052Z,-2.91
2023-01-29T06:41:32.366Z,-2.95
2023-01-29T06:44:02.126Z,-2.94
2023-01-29T06:46:30.386Z,-2.92
2023-01-29T06:48:59.879Z,-2.93
2023-01-29T06:51:28.521Z,-2.91
2023-01-29T06:53:56.863Z,-2.87
2023-01-29T06:56:25.792Z,-2.83
2023-01-29T06:58:54.085Z,-2.88
2023-01-29T07:01:35.728Z,-2.81
2023-01-29T07:04:05.498Z,-2.86
2023-01-29T07:06:34.303Z,-2.87
2023-01-29T07:09:02.736Z,-2.89
2023-01-29T07:11:31.175Z,-2.85
2023-01-29T07:13:59.505Z,-2.84
2023-01-29T07:16:29.448Z,-2.81
2023-01-29T07:18:57.707Z,-2.87
2023-01-29T07:21:26.225Z,-2.85
2023-01-29T07:23:54.620Z,-2.78
2023-01-29T07:26:22.964Z,-2.80
2023-01-29T07:28:51.241Z,-2.78
2023-01-29T07:31:19.644Z,-2.76
2023-01-29T07:33:49.578Z,-2.76
2023-01-29T07:36:17.979Z,-2.75
2023-01-29T07:38:50.478Z,-2.77
2023-01-29T07:41:19.092Z,-2.76
2023-01-29T07:43:48.547Z,-2.77
2023-01-29T07:46:16.904Z,-2.74
2023-01-29T07:48:45.291Z,-2.80
2023-01-29T07:51:15.175Z,-2.76
2023-01-29T07:53:44.487Z,-2.78
2023-01-29T07:56:12.836Z,-2.73
2023-01-29T07:58:41.081Z,-2.77
2023-01-29T08:01:10.145Z,-2.76
2023-01-29T08:03:38.502Z,-2.75
2023-01-29T08:06:07.048Z,-2.72
2023-01-29T08:08:36.856Z,-2.72
2023-01-29T08:11:06.214Z,-2.65
2023-01-29T08:13:34.914Z,-2.69
2023-01-29T08:16:04.079Z,-2.71
2023-01-29T08:18:32.770Z,-2.73
2023-01-29T08:21:02.388Z,-2.66
2023-01-29T08:23:31.146Z,-2.67
2023-01-29T08:26:00.902Z,-2.65
2023-01-29T08:28:29.178Z,-2.67
2023-01-29T08:30:57.499Z,-2.61
2023-01-29T08:33:38.693Z,-2.63
2023-01-29T08:36:08.917Z,-2.61
2023-01-29T08:38:37.492Z,-2.62
2023-01-29T08:41:08.066Z,-2.60
2023-01-29T08:43:37.199Z,-2.57
2023-01-29T08:46:06.675Z,-2.49
2023-01-29T08:48:35.115Z,-2.44
2023-01-29T08:51:04.653Z,-2.40
2023-01-29T08:53:33.627Z,-2.39
2023-01-29T08:56:02.134Z,-2.31
2023-01-29T08:58:31.859Z,-2.33
2023-01-29T09:01:07.544Z,-2.29
2023-01-29T09:03:36.257Z,-2.22
2023-01-29T09:06:04.864Z,-2.21
2023-01-29T09:08:33.125Z,-2.28
2023-01-29T09:11:01.515Z,-2.21
2023-01-29T09:13:31.262Z,-2.13
2023-01-29T09:16:01.346Z,-2.16
2023-01-29T09:18:30.972Z,-2.00
2023-01-29T09:20:59.597Z,-2.06
2023-01-29T09:23:27.884Z,-2.06
2023-01-29T09:25:56.137Z,-1.91
2023-01-29T09:28:24.691Z,-2.02
2023-01-29T09:30:54.603Z,-2.01
2023-01-29T09:33:24.787Z,-1.98
2023-01-29T09:35:53.084Z,-1.97
2023-01-29T09:38:23.939Z,-1.88
2023-01-29T09:41:01.494Z,-1.85
2023-01-29T09:43:41.783Z,-1.94
2023-01-29T09:46:20.659Z,-1.87
2023-01-29T09:48:54.163Z,-1.89
2023-01-29T09:51:29.637Z,-1.93
2023-01-29T09:54:10.569Z,-1.79
2023-01-29T09:56:38.891Z,-1.75
2023-01-29T09:59:07.203Z,-1.84
2023-01-29T10:01:48.782Z,-1.78
2023-01-29T10:04:50.826Z,-1.72
2023-01-29T10:07:38.107Z,-1.60
2023-01-29T10:10:20.321Z,-1.54
2023-01-29T10:13:02.727Z,-1.59
2023-01-29T10:15:43.546Z,-1.51
2023-01-29T10:18:53.443Z,-1.47
2023-01-29T10:21:38.938Z,-1.45
2023-01-29T10:24:23.751Z,-1.37
2023-01-29T10:26:53.518Z,-1.44
2023-01-29T10:29:22.851Z,-1.37
2023-01-29T10:31:56.414Z,-1.29
2023-01-29T10:34:34.833Z,-1.31
2023-01-29T10:37:09.611Z,-1.32
2023-01-29T10:39:37.988Z,-1.28
2023-01-29T10:42:19.776Z,-1.24
2023-01-29T10:45:01.211Z,-1.20
2023-01-29T10:48:08.686Z,-1.24
2023-01-29T10:50:49.012Z,-1.21
2023-01-29T10:53:32.840Z,-1.11
2023-01-29T10:56:22.841Z,-1.01
2023-01-29T10:58:54.941Z,-1.05
2023-01-29T11:01:24.094Z,-1.02
2023-01-29T11:03:59.559Z,-0.96
2023-01-29T11:06:33.002Z,-0.96
2023-01-29T11:09:08.174Z,-0.89
2023-01-29T11:11:43.188Z,-0.86
2023-01-29T11:14:16.014Z,-0.91
2023-01-29T11:16:46.896Z,-0.91
2023-01-29T11:19:16.561Z,-0.99
2023-01-29T11:22:00.248Z,-1.00
2023-01-29T11:24:29.348Z,-0.97
2023-01-29T11:27:00.260Z,-1.07
2023-01-29T11:29:34.037Z,-0.96
2023-01-29T11:32:06.807Z,-0.97
2023-01-29T11:34:35.160Z,-1.03
2023-01-29T11:37:16.211Z,-0.90
2023-01-29T11:39:47.264Z,-0.86
2023-01-29T11:42:21.501Z,-0.89
2023-01-29T11:44:50.752Z,-0.84
2023-01-29T11:47:24.084Z,-0.85
2023-01-29T11:49:54.999Z,-0.74
2023-01-29T11:52:27.066Z,-0.81
2023-01-29T11:54:59.349Z,-0.84
2023-01-29T11:57:31.590Z,-0.89
2023-01-29T12:00:04.998Z,-0.91
2023-01-29T12:02:39.758Z,-0.80
2023-01-29T12:05:17.165Z,-0.75
2023-01-29T12:07:50.420Z,-0.77
2023-01-29T12:10:34.222Z,-0.72
2023-01-29T12:13:07.141Z,-0.82
2023-01-29T12:15:35.654Z,-0.83
2023-01-29T12:18:13.399Z,-0.69
2023-01-29T12:20:46.762Z,-0.72
2023-01-29T12:23:29.822Z,-0.66
2023-01-29T12:26:06.024Z,-0.69
2023-01-29T12:28:55.190Z,-0.58
2023-01-29T12:31:30.942Z,-0.61
2023-01-29T12:34:07.140Z,-0.68
2023-01-29T12:36:43.122Z,-0.59
2023-01-29T12:39:18.014Z,-0.57
2023-01-29T12:41:51.330Z,-0.66
2023-01-29T12:44:22.451Z,-0.67
2023-01-29T12:46:55.510Z,-0.68
2023-01-29T12:49:28.492Z,-0.57
2023-01-29T12:52:04.202Z,-0.64
2023-01-29T12:54:40.996Z,-0.61
2023-01-29T12:57:24.008Z,-0.66
2023-01-29T12:59:59.347Z,-0.65
2023-01-29T13:02:40.729Z,-0.61
2023-01-29T13:05:20.539Z,-0.61
2023-01-29T13:07:53.116Z,-0.65
2023-01-29T13:10:29.897Z,-0.61
2023-01-29T13:13:03.764Z,-0.58
2023-01-29T13:15:37.146Z,-0.61
2023-01-29T13:18:30.582Z,-0.57
2023-01-29T13:21:00.767Z,-0.54
2023-01-29T13:23:36.072Z,-0.46
2023-01-29T13:26:06.911Z,-0.47
2023-01-29T13:28:35.469Z,-0.46
2023-01-29T13:31:19.511Z,-0.44
2023-01-29T13:33:55.127Z,-0.53
2023-01-29T13:36:29.293Z,-0.37
2023-01-29T13:39:02.585Z,-0.43
2023-01-29T13:41:42.710Z,-0.41
2023-01-29T13:44:26.261Z,-0.40
2023-01-29T13:46:59.074Z,-0.35
2023-01-29T13:49:34.114Z,-0.47
2023-01-29T13:52:17.245Z,-0.43
2023-01-29T13:54:54.078Z,-0.38
2023-01-29T13:57:50.487Z,-0.46
2023-01-29T14:00:58.922Z,-0.43
2023-01-29T14:04:10.122Z,-0.41
2023-01-29T14:06:50.102Z,-0.47
2023-01-29T14:10:03.205Z,-0.47
2023-01-29T14:12:41.647Z,-0.44
2023-01-29T14:15:21.541Z,-0.46
2023-01-29T14:18:06.847Z,-0.49
2023-01-29T14:20:45.950Z,-0.44
2023-01-29T14:23:27.782Z,-0.36
2023-01-29T14:25:56.796Z,-0.47
2023-01-29T14:28:31.081Z,-0.42
2023-01-29T14:31:00.353Z,-0.46
2023-01-29T14:33:35.912Z,-0.44
2023-01-29T14:36:10.699Z,-0.46
2023-01-29T14:38:41.384Z,-0.47
2023-01-29T14:41:22.627Z,-0.42
2023-01-29T14:43:52.360Z,-0.48
2023-01-29T14:46:44.435Z,-0.52
2023-01-29T14:49:13.089Z,-0.46
2023-01-29T14:51:45.966Z,-0.45
2023-01-29T14:54:24.405Z,-0.46
2023-01-29T14:57:00.486Z,-0.52
2023-01-29T14:59:37.494Z,-0.50
2023-01-29T15:02:18.639Z,-0.51
2023-01-29T15:04:51.097Z,-0.57
2023-01-29T15:07:28.365Z,-0.55
2023-01-29T15:10:20.982Z,-0.58
2023-01-29T15:12:56.474Z,-0.59
2023-01-29T15:15:38.957Z,-0.54
2023-01-29T15:18:13.237Z,-0.54
2023-01-29T15:20:43.282Z,-0.54
2023-01-29T15:23:27.884Z,-0.57
2023-01-29T15:25:59.050Z,-0.58
2023-01-29T15:28:30.961Z,-0.59
2023-01-29T15:31:04.308Z,-0.64
2023-01-29T15:33:34.782Z,-0.64
2023-01-29T15:36:08.780Z,-0.67
2023-01-29T15:38:37.529Z,-0.66
2023-01-29T15:41:19.055Z,-0.66
2023-01-29T15:43:49.255Z,-0.76
2023-01-29T15:46:25.972Z,-0.74
2023-01-29T15:48:56.197Z,-0.77
2023-01-29T15:51:27.627Z,-0.75
2023-01-29T15:53:59.636Z,-0.85
2023-01-29T15:56:32.279Z,-0.85
2023-01-29T15:59:05.496Z,-0.86
2023-01-29T16:01:39.209Z,-0.90
2023-01-29T16:04:14.163Z,-0.92
2023-01-29T16:06:44.009Z,-0.94
2023-01-29T16:09:19.881Z,-0.95
2023-01-29T16:11:50.645Z,-0.98
2023-01-29T16:14:23.167Z,-0.98
2023-01-29T16:16:53.436Z,-0.98
2023-01-29T16:19:24.373Z,-1.02
2023-01-29T16:21:59.475Z,-1.03
2023-01-29T16:24:29.039Z,-1.01
2023-01-29T16:27:01.069Z,-1.03
2023-01-29T16:29:33.003Z,-1.07
2023-01-29T16:32:05.486Z,-1.09
2023-01-29T16:34:37.430Z,-1.09
2023-01-29T16:37:08.692Z,-1.05
2023-01-29T16:39:40.848Z,-1.13
2023-01-29T16:42:25.135Z,-1.12
2023-01-29T16:44:57.282Z,-1.12
2023-01-29T16:47:36.146Z,-1.14
2023-01-29T16:50:27.803Z,-1.19
2023-01-29T16:52:57.980Z,-1.10
2023-01-29T16:55:26.771Z,-1.20
2023-01-29T16:57:56.851Z,-1.22
2023-01-29T17:00:27.831Z,-1.21
2023-01-29T17:03:02.737Z,-1.20
2023-01-29T17:05:34.804Z,-1.20
2023-01-29T17:08:04.337Z,-1.27
2023-01-29T17:10:34.116Z,-1.22
2023-01-29T17:13:05.233Z,-1.21
2023-01-29T17:15:36.768Z,-1.24
2023-01-29T17:18:18.259Z,-1.21
2023-01-29T17:20:46.528Z,-1.23
2023-01-29T17:23:14.995Z,-1.21
2023-01-29T17:25:45.015Z,-1.19
2023-01-29T17:28:14.934Z,-1.19
2023-01-29T17:30:44.938Z,-1.21
2023-01-29T17:33:22.671Z,-1.19
2023-01-29T17:35:51.664Z,-1.18
2023-01-29T17:38:26.433Z,-1.16
2023-01-29T17:40:59.341Z,-1.14
2023-01-29T17:43:27.731Z,-1.10
2023-01-29T17:45:56.239Z,-1.16
2023-01-29T17:48:28.603Z,-1.17
2023-01-29T17:50:58.957Z,-1.11
2023-01-29T17:53:43.287Z,-1.12
2023-01-29T17:56:17.700Z,-1.09
2023-01-29T17:58:46.036Z,-1.04
2023-01-29T18:01:14.366Z,-1.14
2023-01-29T18:03:44.623Z,-1.10
2023-01-29T18:06:26.277Z,-1.07
2023-01-29T18:08:54.677Z,-1.07
2023-01-29T18:11:22.970Z,-1.07
2023-01-29T18:13:51.519Z,-1.10
2023-01-29T18:16:22.075Z,-1.10
2023-01-29T18:18:52.883Z,-1.04
2023-01-29T18:21:21.367Z,-1.04
2023-01-29T18:23:49.682Z,-1.10
2023-01-29T18:26:18.475Z,-1.04
2023-01-29T18:28:46.843Z,-1.09
2023-01-29T18:31:15.447Z,-1.06
2023-01-29T18:33:43.796Z,-1.00
2023-01-29T18:36:13.476Z,-1.03
2023-01-29T18:38:41.877Z,-1.00
2023-01-29T18:41:11.705Z,-1.06
2023-01-29T18:43:40.876Z,-1.04
2023-01-29T18:46:10.097Z,-1.04
2023-01-29T18:48:38.942Z,-0.99
2023-01-29T18:51:08.293Z,-0.96
2023-01-29T18:53:38.078Z,-0.96
2023-01-29T18:56:07.465Z,-0.94
2023-01-29T18:58:37.193Z,-0.96
2023-01-29T19:01:09.722Z,-0.94
2023-01-29T19:03:40.603Z,-0.92
2023-01-29T19:06:11.735Z,-0.89
2023-01-29T19:08:43.039Z,-0.92
2023-01-29T19:11:12.691Z,-0.90
2023-01-29T19:13:42.650Z,-0.88
2023-01-29T19:16:12.680Z,-0.87
2023-01-29T19:18:41.313Z,-0.91
2023-01-29T19:21:11.109Z,-0.87
2023-01-29T19:23:41.842Z,-0.84
2023-01-29T19:26:10.538Z,-0.87
2023-01-29T19:28:38.873Z,-0.86
2023-01-29T19:31:07.254Z,-0.84
2023-01-29T19:33:35.550Z,-0.81
2023-01-29T19:36:05.308Z,-0.82
2023-01-29T19:38:37.980Z,-0.83
2023-01-29T19:41:07.843Z,-0.80
2023-01-29T19:43:38.235Z,-0.86
2023-01-29T19:46:07.615Z,-0.76
2023-01-29T19:48:36.311Z,-0.78
2023-01-29T19:51:08.460Z,-0.81
2023-01-29T19:53:37.597Z,-0.77
2023-01-29T19:56:09.951Z,-0.77
2023-01-29T19:58:38.795Z,-0.81
2023-01-29T20:01:08.975Z,-0.74
2023-01-29T20:03:38.116Z,-0.82
2023-01-29T20:06:08.663Z,-0.81
2023-01-29T20:08:37.399Z,-0.83
2023-01-29T20:11:07.642Z,-0.85
2023-01-29T20:13:35.915Z,-0.82
2023-01-29T20:16:05.613Z,-0.83
2023-01-29T20:18:34.253Z,-0.90
2023-01-29T20:21:08.274Z,-0.91
2023-01-29T20:23:38.774Z,-0.89
2023-01-29T20:26:09.891Z,-0.94
2023-01-29T20:28:38.492Z,-0.93
2023-01-29T20:31:08.265Z,-0.88
2023-01-29T20:36:23.470Z,-0.90
2023-01-29T20:38:51.731Z,-0.87
2023-01-29T20:41:21.816Z,-0.88
2023-01-29T20:43:51.131Z,-0.94
2023-01-29T20:46:29.278Z,-0.94
2023-01-29T20:48:57.654Z,-1.02
2023-01-29T20:51:25.963Z,-1.00
2023-01-29T20:53:55.564Z,-1.05
2023-01-29T20:56:36.349Z,-1.05
2023-01-29T20:59:11.126Z,-1.12
2023-01-29T21:01:39.428Z,-1.10
2023-01-29T21:04:07.816Z,-1.10
2023-01-29T21:06:36.099Z,-1.12
2023-01-29T21:09:06.030Z,-1.17
2023-01-29T21:11:35.798Z,-1.16
2023-01-29T21:14:04.429Z,-1.15
2023-01-29T21:16:32.872Z,-1.15
2023-01-29T21:19:03.674Z,-1.20
2023-01-29T21:21:31.944Z,-1.20
2023-01-29T21:24:00.568Z,-1.21
2023-01-29T21:26:28.963Z,-1.21
2023-01-29T21:28:58.692Z,-1.22
2023-01-29T21:31:27.060Z,-1.21
2023-01-29T21:33:56.035Z,-1.21
2023-01-29T21:36:24.420Z,-1.17
2023-01-29T21:38:52.786Z,-1.25
2023-01-29T21:41:41.129Z,-1.29
2023-01-29T21:44:11.826Z,-1.29
2023-01-29T21:46:40.209Z,-1.35
2023-01-29T21:49:09.535Z,-1.44
2023-01-29T21:51:37.842Z,-1.43
2023-01-29T21:54:06.265Z,-1.48
2023-01-29T21:56:34.599Z,-1.47
2023-01-29T21:59:02.868Z,-1.48
2023-01-29T22:01:38.086Z,-1.49
2023-01-29T22:04:08.331Z,-1.54
2023-01-29T22:06:36.721Z,-1.48
2023-01-29T22:09:05.123Z,-1.52
2023-01-29T22:11:33.738Z,-1.50
2023-01-29T22:14:02.049Z,-1.50
2023-01-29T22:16:30.489Z,-1.49
2023-01-29T22:19:00.350Z,-1.55
2023-01-29T22:21:28.631Z,-1.51
2023-01-29T22:23:57.218Z,-1.56
2023-01-29T22:26:25.540Z,-1.52
2023-01-29T22:28:53.847Z,-1.59
2023-01-29T22:31:22.487Z,-1.54
2023-01-29T22:33:50.878Z,-1.56
2023-01-29T22:36:20.893Z,-1.53
2023-01-29T22:38:49.170Z,-1.59
2023-01-29T22:41:17.582Z,-1.58
2023-01-29T22:43:45.827Z,-1.59
2023-01-29T22:46:14.138Z,-1.57
2023-01-29T22:48:42.430Z,-1.62
2023-01-29T22:51:11.972Z,-1.62
2023-01-29T22:53:44.589Z,-1.64
2023-01-29T22:56:13.443Z,-1.52
2023-01-29T22:58:42.245Z,-1.57
2023-01-29T23:01:11.449Z,-1.63
2023-01-29T23:03:39.832Z,-1.66
2023-01-29T23:06:08.121Z,-1.63
2023-01-29T23:08:36.394Z,-1.66
2023-01-29T23:11:15.097Z,-1.63
2023-01-29T23:13:44.540Z,-1.63
2023-01-29T23:16:13.254Z,-1.65
2023-01-29T23:18:42.100Z,-1.71
2023-01-29T23:21:10.793Z,-1.68
2023-01-29T23:23:39.749Z,-1.70
2023-01-29T23:26:29.106Z,-1.73
2023-01-29T23:28:57.464Z,-1.70
2023-01-29T23:31:25.791Z,-1.76
2023-01-29T23:33:54.115Z,-1.76
2023-01-29T23:36:22.695Z,-1.72
2023-01-29T23:38:51.214Z,-1.74
2023-01-29T23:41:21.330Z,-1.76
2023-01-29T23:43:50.007Z,-1.76
2023-01-29T23:46:18.394Z,-1.73
2023-01-29T23:48:46.683Z,-1.73
2023-01-29T23:51:15.024Z,-1.78
2023-01-29T23:53:43.441Z,-1.77
2023-01-29T23:56:12.423Z,-1.74
2023-01-29T23:58:42.255Z,-1.78
